Time;durP1;ratioP1;P1;durP2;ratioP2;P2;SDS_P1;SDS_P2;PMS_P1;PMS_P2;Temp;Humidity;BMP_temperature;BMP_pressure;BME280_temperature;BME280_humidity;BME280_pressure;Samples;Min_cycle;Max_cycle;Signal;HPM_P1;HPM_P2
2023/09/26 00:01:19;;;;;;;1.90;1.80;;;20.90;54.70;;;;;;5045202;28;20223;-79
2023/09/26 00:03:46;;;;;;;2.25;2.05;;;20.90;54.60;;;;;;5043792;28;20187;-79
2023/09/26 00:06:20;;;;;;;2.30;2.10;;;20.90;54.70;;;;;;5059482;28;20215;-79
2023/09/26 00:08:52;;;;;;;1.90;1.80;;;20.90;54.70;;;;;;5028094;28;20199;-79
2023/09/26 00:11:21;;;;;;;1.85;1.75;;;20.90;54.70;;;;;;5060979;28;20267;-79
2023/09/26 00:13:48;;;;;;;1.73;1.63;;;20.90;54.80;;;;;;5060537;28;20291;-79
2023/09/26 00:16:15;;;;;;;2.67;2.00;;;20.80;54.70;;;;;;5044281;28;20218;-79
2023/09/26 00:18:42;;;;;;;1.73;1.63;;;20.90;54.80;;;;;;5061071;28;20222;-79
2023/09/26 00:21:10;;;;;;;1.98;1.75;;;20.80;54.70;;;;;;5043834;28;20259;-79
2023/09/26 00:23:37;;;;;;;2.17;1.98;;;20.80;54.70;;;;;;5096254;22;20223;-77
2023/09/26 00:26:06;;;;;;;2.03;1.90;;;20.80;54.70;;;;;;5056415;28;20210;-77
2023/09/26 00:28:38;;;;;;;2.00;1.90;;;20.80;54.70;;;;;;5056567;28;20199;-77
2023/09/26 00:31:06;;;;;;;1.73;1.63;;;20.80;54.70;;;;;;5056391;28;20737;-77
2023/09/26 00:33:33;;;;;;;2.03;1.83;;;20.80;54.90;;;;;;5040517;28;20223;-77
2023/09/26 00:36:07;;;;;;;2.10;2.00;;;20.70;54.90;;;;;;5056347;28;20696;-77
2023/09/26 00:38:34;;;;;;;1.90;1.80;;;20.80;55.00;;;;;;5056195;28;20630;-77
2023/09/26 00:41:02;;;;;;;1.80;1.70;;;20.80;55.00;;;;;;5056298;28;20607;-77
2023/09/26 00:43:29;;;;;;;2.08;1.90;;;20.80;55.10;;;;;;5056350;28;20256;-77
2023/09/26 00:45:58;;;;;;;1.92;1.80;;;20.80;55.10;;;;;;5074535;28;20210;-77
2023/09/26 00:48:26;;;;;;;2.42;1.80;;;20.80;55.20;;;;;;5056646;28;20201;-77
2023/09/26 00:50:54;;;;;;;2.33;1.90;;;20.70;55.10;;;;;;5056974;28;20256;-77
2023/09/26 00:53:22;;;;;;;1.80;1.70;;;20.70;55.10;;;;;;5055989;28;20201;-77
2023/09/26 00:55:49;;;;;;;2.08;1.98;;;20.70;55.10;;;;;;5055918;28;20214;-77
2023/09/26 00:58:19;;;;;;;1.98;1.60;;;20.70;55.10;;;;;;5055992;28;20256;-77
2023/09/26 01:00:46;;;;;;;1.80;1.70;;;20.70;55.10;;;;;;5055942;28;20281;-77
2023/09/26 01:03:14;;;;;;;2.17;1.98;;;20.70;55.10;;;;;;5055898;28;20202;-77
2023/09/26 01:05:42;;;;;;;2.33;2.13;;;20.70;55.10;;;;;;5056387;28;20579;-78
2023/09/26 01:08:08;;;;;;;2.00;1.77;;;20.70;55.10;;;;;;5056203;28;20194;-78
2023/09/26 01:10:37;;;;;;;1.77;1.67;;;20.70;55.20;;;;;;5055936;28;20248;-78
2023/09/26 01:13:05;;;;;;;2.10;2.00;;;20.60;55.00;;;;;;5056396;28;20203;-78
2023/09/26 01:15:32;;;;;;;1.92;1.83;;;20.60;55.00;;;;;;5056930;28;20238;-78
2023/09/26 01:18:00;;;;;;;1.92;1.83;;;20.60;55.00;;;;;;5055688;28;20203;-78
2023/09/26 01:20:28;;;;;;;2.00;1.90;;;20.60;55.10;;;;;;5056018;28;20195;-78
2023/09/26 01:22:56;;;;;;;2.00;1.80;;;20.60;55.10;;;;;;5055454;28;20294;-78
2023/09/26 01:25:25;;;;;;;2.10;2.00;;;20.60;55.20;;;;;;5073568;28;20211;-78
2023/09/26 01:27:51;;;;;;;2.35;2.00;;;20.60;55.20;;;;;;5055628;28;20194;-78
2023/09/26 01:30:19;;;;;;;2.00;1.90;;;20.60;55.20;;;;;;5073682;28;20191;-78
2023/09/26 01:32:46;;;;;;;1.98;1.88;;;20.60;55.20;;;;;;5055382;28;20206;-78
2023/09/26 01:35:14;;;;;;;2.30;2.10;;;20.60;55.20;;;;;;5039173;28;20214;-78
2023/09/26 01:37:41;;;;;;;2.28;2.10;;;20.60;55.10;;;;;;5055496;28;20248;-78
2023/09/26 01:40:15;;;;;;;1.95;1.85;;;20.60;55.00;;;;;;5055373;28;20223;-78
2023/09/26 01:42:43;;;;;;;2.05;1.92;;;20.50;55.60;;;;;;5055848;28;20193;-78
2023/09/26 01:45:14;;;;;;;2.03;1.92;;;20.50;55.00;;;;;;5056464;28;20266;-78
2023/09/26 01:47:43;;;;;;;2.08;1.92;;;20.50;55.00;;;;;;5038998;28;20202;-78
2023/09/26 01:50:10;;;;;;;2.33;2.13;;;20.50;55.60;;;;;;5055163;28;20198;-78
2023/09/26 01:52:37;;;;;;;2.03;1.92;;;20.50;55.00;;;;;;5056050;28;20195;-78
2023/09/26 01:55:06;;;;;;;1.90;1.80;;;20.60;55.00;;;;;;5055123;28;20219;-78
2023/09/26 01:57:33;;;;;;;2.50;2.20;;;20.50;55.00;;;;;;5055165;28;20199;-78
2023/09/26 02:00:05;;;;;;;2.08;1.92;;;20.50;55.00;;;;;;5038769;28;20282;-78
2023/09/26 02:02:39;;;;;;;2.10;1.90;;;20.50;55.00;;;;;;5073371;28;20232;-78
2023/09/26 02:05:08;;;;;;;1.85;1.75;;;20.50;55.00;;;;;;5055126;28;20230;-78
2023/09/26 02:07:35;;;;;;;2.15;1.95;;;20.50;55.00;;;;;;5055099;28;20202;-78
2023/09/26 02:10:03;;;;;;;2.15;1.98;;;20.50;55.00;;;;;;5055146;28;20649;-78
2023/09/26 02:12:31;;;;;;;1.95;1.85;;;20.40;54.90;;;;;;5055393;28;20240;-78
2023/09/26 02:15:00;;;;;;;2.33;2.20;;;20.50;55.00;;;;;;5058543;28;20226;-78
2023/09/26 02:17:29;;;;;;;1.85;1.75;;;20.50;55.00;;;;;;5044027;28;20191;-78
2023/09/26 02:19:57;;;;;;;1.90;1.80;;;20.40;55.00;;;;;;5058910;28;20205;-78
2023/09/26 02:22:25;;;;;;;2.13;2.00;;;20.40;55.00;;;;;;5058733;28;20210;-78
2023/09/26 02:24:52;;;;;;;2.17;1.98;;;20.40;55.00;;;;;;5058772;28;20604;-78
2023/09/26 02:27:20;;;;;;;2.40;2.13;;;20.40;55.00;;;;;;5058358;28;20313;-78
2023/09/26 02:29:47;;;;;;;2.00;1.85;;;20.40;54.90;;;;;;5058413;28;20198;-78
2023/09/26 02:32:14;;;;;;;1.98;1.88;;;20.40;55.00;;;;;;5058492;28;20206;-77
2023/09/26 02:34:43;;;;;;;2.00;1.90;;;20.40;55.00;;;;;;5058245;28;20359;-77
2023/09/26 02:37:10;;;;;;;1.90;1.80;;;20.40;55.00;;;;;;5058976;28;20229;-77
2023/09/26 02:39:37;;;;;;;1.92;1.83;;;20.40;55.10;;;;;;5058692;28;20665;-77
2023/09/26 02:42:04;;;;;;;2.00;1.80;;;20.40;55.10;;;;;;5076751;28;20647;-77
2023/09/26 02:44:31;;;;;;;1.90;1.80;;;20.40;55.10;;;;;;5058320;28;20195;-77
2023/09/26 02:46:58;;;;;;;2.13;1.90;;;20.40;55.10;;;;;;5058059;28;20218;-77
2023/09/26 02:49:25;;;;;;;1.90;1.80;;;20.40;55.10;;;;;;5058129;28;20221;-77
2023/09/26 02:51:54;;;;;;;2.08;1.98;;;20.40;55.20;;;;;;5058137;28;20202;-77
2023/09/26 02:54:21;;;;;;;2.30;2.10;;;20.40;55.20;;;;;;5058203;28;20218;-77
2023/09/26 02:56:51;;;;;;;1.95;1.85;;;20.40;55.20;;;;;;5057797;28;20684;-77
2023/09/26 02:59:18;;;;;;;2.00;1.90;;;20.40;55.20;;;;;;5057816;28;20661;-77
2023/09/26 03:01:46;;;;;;;2.00;1.90;;;20.40;55.20;;;;;;5078117;28;20205;-77
2023/09/26 03:04:13;;;;;;;2.47;2.00;;;20.30;55.10;;;;;;5057646;28;20205;-77
2023/09/26 03:06:40;;;;;;;2.40;2.05;;;20.30;55.10;;;;;;5058171;28;20733;-77
2023/09/26 03:09:09;;;;;;;2.30;2.10;;;20.30;55.10;;;;;;5058003;28;20198;-77
2023/09/26 03:11:36;;;;;;;2.10;1.90;;;20.30;55.00;;;;;;5058751;28;20234;-77
2023/09/26 03:14:03;;;;;;;2.47;2.28;;;20.30;54.80;;;;;;5057800;28;20248;-77
2023/09/26 03:16:30;;;;;;;3.17;2.00;;;20.30;54.80;;;;;;5057340;28;20692;-77
2023/09/26 03:18:58;;;;;;;2.08;1.90;;;20.30;54.80;;;;;;5057980;28;20201;-77
2023/09/26 03:21:25;;;;;;;2.55;2.20;;;20.30;54.80;;;;;;5057471;28;20202;-77
2023/09/26 03:23:52;;;;;;;2.20;2.10;;;20.40;54.90;;;;;;5057963;28;20271;-77
2023/09/26 03:26:20;;;;;;;2.17;2.00;;;20.40;54.90;;;;;;5056788;28;20219;-77
2023/09/26 03:28:47;;;;;;;2.40;2.20;;;20.40;54.90;;;;;;5057373;28;20191;-77
2023/09/26 03:31:14;;;;;;;2.03;1.92;;;20.50;54.90;;;;;;5057573;28;20202;-77
2023/09/26 03:33:42;;;;;;;2.17;2.00;;;20.50;54.70;;;;;;5057919;28;20222;-77
2023/09/26 03:36:09;;;;;;;2.10;2.00;;;20.50;54.60;;;;;;5057100;28;20276;-77
2023/09/26 03:38:35;;;;;;;2.00;1.90;;;20.50;54.50;;;;;;5057469;28;20668;-77
2023/09/26 03:41:06;;;;;;;1.95;1.83;;;20.60;54.50;;;;;;5057526;28;20199;-77
2023/09/26 03:43:34;;;;;;;2.10;2.00;;;20.60;54.30;;;;;;5075157;28;20209;-77
2023/09/26 03:46:02;;;;;;;1.90;1.80;;;20.60;54.30;;;;;;5074906;28;20685;-77
2023/09/26 03:48:29;;;;;;;2.25;2.05;;;20.70;54.30;;;;;;5056890;28;20199;-77
2023/09/26 03:50:56;;;;;;;2.08;1.90;;;20.70;54.20;;;;;;5056922;28;20251;-77
2023/09/26 03:53:24;;;;;;;2.33;2.17;;;20.70;54.20;;;;;;5056731;28;20202;-77
2023/09/26 03:55:56;;;;;;;2.25;2.05;;;20.70;54.20;;;;;;5074710;28;20219;-77
2023/09/26 03:58:23;;;;;;;2.20;2.10;;;20.70;54.10;;;;;;5056791;28;20191;-77
2023/09/26 04:00:51;;;;;;;1.83;1.73;;;20.70;54.10;;;;;;5056730;28;20546;-77
2023/09/26 04:03:21;;;;;;;2.30;2.10;;;20.70;54.10;;;;;;5056490;28;20263;-77
2023/09/26 04:05:48;;;;;;;2.45;2.00;;;20.70;54.10;;;;;;5056511;28;20219;-77
2023/09/26 04:08:16;;;;;;;2.00;1.90;;;20.70;54.10;;;;;;5055847;28;20719;-77
2023/09/26 04:10:42;;;;;;;2.13;2.00;;;20.70;54.10;;;;;;5056476;28;20205;-77
2023/09/26 04:13:11;;;;;;;2.00;1.90;;;20.70;54.10;;;;;;5056535;28;20203;-77
2023/09/26 04:15:38;;;;;;;2.05;1.95;;;20.70;54.10;;;;;;5056186;28;20262;-78
2023/09/26 04:18:07;;;;;;;2.28;2.17;;;20.70;54.10;;;;;;5056382;28;20589;-78
2023/09/26 04:20:36;;;;;;;2.08;1.88;;;20.70;54.40;;;;;;5056470;28;20195;-78
2023/09/26 04:23:04;;;;;;;2.10;2.00;;;20.70;54.10;;;;;;5056613;28;20210;-78
2023/09/26 04:25:31;;;;;;;2.30;2.10;;;20.60;54.10;;;;;;5056270;28;20211;-77
2023/09/26 04:27:58;;;;;;;2.10;1.90;;;20.60;54.10;;;;;;5056496;28;20198;-77
2023/09/26 04:30:25;;;;;;;2.20;2.00;;;20.60;54.10;;;;;;5057127;28;20198;-77
2023/09/26 04:32:52;;;;;;;2.40;2.20;;;20.60;54.10;;;;;;5056640;28;20203;-77
2023/09/26 04:35:20;;;;;;;2.10;2.00;;;20.60;54.30;;;;;;5055922;28;20250;-76
2023/09/26 04:37:47;;;;;;;2.47;2.38;;;20.50;54.50;;;;;;5056323;28;20281;-77
2023/09/26 04:40:14;;;;;;;2.95;2.67;;;20.50;54.20;;;;;;5056301;28;20194;-77
2023/09/26 04:42:43;;;;;;;2.30;2.10;;;20.50;54.10;;;;;;5056337;28;20728;-77
2023/09/26 04:45:10;;;;;;;2.97;2.30;;;20.50;54.10;;;;;;5056093;28;20676;-77
2023/09/26 04:47:37;;;;;;;2.40;2.20;;;20.50;54.10;;;;;;5055976;28;20244;-77
2023/09/26 04:50:05;;;;;;;2.45;2.25;;;20.50;54.30;;;;;;5039429;28;20537;-77
2023/09/26 04:52:34;;;;;;;2.70;2.50;;;20.50;54.50;;;;;;5056993;28;20256;-77
2023/09/26 04:55:01;;;;;;;3.47;2.40;;;20.50;54.70;;;;;;5056560;28;20271;-77
2023/09/26 04:57:28;;;;;;;3.70;2.30;;;20.40;54.30;;;;;;5055796;28;20195;-77
2023/09/26 04:59:55;;;;;;;4.20;2.40;;;20.40;54.40;;;;;;5055838;28;20198;-77
2023/09/26 05:02:22;;;;;;;2.70;2.50;;;20.30;54.20;;;;;;5055900;28;20198;-77
2023/09/26 05:04:49;;;;;;;3.50;2.00;;;20.40;54.30;;;;;;5073948;28;20186;-77
2023/09/26 05:07:16;;;;;;;3.00;2.55;;;20.30;54.60;;;;;;5055653;28;20693;-77
2023/09/26 05:09:45;;;;;;;3.50;2.60;;;20.40;54.70;;;;;;5055771;28;20210;-77
2023/09/26 05:12:11;;;;;;;3.00;2.70;;;20.30;54.40;;;;;;5055887;28;20191;-77
2023/09/26 05:14:38;;;;;;;2.85;2.65;;;20.30;54.30;;;;;;5055715;28;20202;-77
2023/09/26 05:17:05;;;;;;;2.53;2.33;;;20.30;54.40;;;;;;5073973;28;20296;-77
2023/09/26 05:19:32;;;;;;;2.90;2.70;;;20.30;54.20;;;;;;5055874;28;20195;-78
2023/09/26 05:21:59;;;;;;;3.33;2.75;;;20.30;52.70;;;;;;5055951;28;20244;-78
2023/09/26 05:24:35;;;;;;;3.28;2.97;;;20.30;52.40;;;;;;5056388;28;20217;-78
2023/09/26 05:27:04;;;;;;;2.70;2.50;;;20.30;52.20;;;;;;5056064;28;20210;-78
2023/09/26 05:29:33;;;;;;;3.15;2.95;;;20.30;52.10;;;;;;5061201;28;20190;-78
2023/09/26 05:32:00;;;;;;;3.78;2.65;;;20.20;51.90;;;;;;5070876;28;20191;-79
2023/09/26 05:34:28;;;;;;;2.90;2.70;;;20.20;51.80;;;;;;5059242;28;20649;-79
2023/09/26 05:36:55;;;;;;;3.10;2.90;;;20.20;51.50;;;;;;5056222;28;20262;-79
2023/09/26 05:39:22;;;;;;;3.00;2.70;;;20.20;51.50;;;;;;5022870;28;20688;-79
2023/09/26 05:41:49;;;;;;;3.17;2.75;;;20.20;51.60;;;;;;5055756;28;20560;-78
2023/09/26 05:44:18;;;;;;;2.72;2.53;;;20.20;51.40;;;;;;5055539;28;20187;-77
2023/09/26 05:46:45;;;;;;;2.40;2.20;;;20.20;52.20;;;;;;5055747;28;20218;-77
2023/09/26 05:49:12;;;;;;;3.97;2.63;;;20.10;52.70;;;;;;5057883;28;20248;-77
2023/09/26 05:51:38;;;;;;;2.70;2.47;;;20.10;52.50;;;;;;5077696;28;20190;-77
2023/09/26 05:54:29;;;;;;;2.88;2.63;;;20.10;52.00;;;;;;5078374;28;20198;-77
2023/09/26 05:56:57;;;;;;;2.30;2.20;;;20.10;52.20;;;;;;5059779;28;20660;-77
2023/09/26 05:59:25;;;;;;;2.17;2.08;;;20.10;52.40;;;;;;5060812;28;20199;-77
2023/09/26 06:01:52;;;;;;;3.30;2.55;;;20.10;52.40;;;;;;5077178;28;20692;-77
2023/09/26 06:04:19;;;;;;;2.97;2.67;;;20.10;52.20;;;;;;5059994;28;20210;-77
2023/09/26 06:06:46;;;;;;;2.50;2.30;;;20.10;51.80;;;;;;5058759;28;20301;-77
2023/09/26 06:09:13;;;;;;;3.55;2.20;;;20.10;51.70;;;;;;5058840;28;20199;-77
2023/09/26 06:11:40;;;;;;;2.38;2.17;;;20.10;52.10;;;;;;5058785;28;20197;-77
2023/09/26 06:14:07;;;;;;;2.30;2.10;;;20.20;52.20;;;;;;5059181;28;20568;-76
2023/09/26 06:16:36;;;;;;;2.20;2.00;;;20.20;52.20;;;;;;5058880;28;20309;-76
2023/09/26 06:19:03;;;;;;;4.28;2.67;;;20.20;52.10;;;;;;5059182;28;20630;-76
2023/09/26 06:21:30;;;;;;;2.50;2.30;;;20.20;52.00;;;;;;5059012;28;20205;-76
2023/09/26 06:23:57;;;;;;;2.53;2.13;;;20.20;52.00;;;;;;5058506;28;20211;-76
2023/09/26 06:26:24;;;;;;;2.35;2.15;;;20.20;51.80;;;;;;5059013;28;20206;-76
2023/09/26 06:28:51;;;;;;;2.88;2.15;;;20.30;51.90;;;;;;5058624;28;20252;-76
2023/09/26 06:31:19;;;;;;;2.20;2.10;;;20.30;52.10;;;;;;5058505;28;20290;-76
2023/09/26 06:33:47;;;;;;;2.10;1.90;;;20.30;52.00;;;;;;5058667;28;20637;-76
2023/09/26 06:36:15;;;;;;;2.40;2.20;;;20.30;51.90;;;;;;5058126;28;20253;-76
2023/09/26 06:38:42;;;;;;;4.15;2.20;;;20.30;51.90;;;;;;5058541;28;20199;-76
2023/09/26 06:41:09;;;;;;;2.42;2.10;;;20.30;51.60;;;;;;5058186;28;20213;-76
2023/09/26 06:43:36;;;;;;;2.28;2.08;;;20.30;51.80;;;;;;5058323;28;20221;-76
2023/09/26 06:46:05;;;;;;;2.55;2.35;;;20.30;51.80;;;;;;5058167;28;20571;-76
2023/09/26 06:48:34;;;;;;;2.20;2.10;;;20.30;51.60;;;;;;5058119;28;20231;-76
2023/09/26 06:51:03;;;;;;;2.45;2.25;;;20.30;51.60;;;;;;5058148;28;20198;-76
2023/09/26 06:53:31;;;;;;;2.30;2.10;;;20.30;51.60;;;;;;5058109;28;20553;-76
2023/09/26 06:56:02;;;;;;;2.30;2.13;;;20.30;51.50;;;;;;5075837;28;20669;-76
2023/09/26 06:58:29;;;;;;;2.30;2.10;;;20.40;51.50;;;;;;5076078;28;20179;-76
2023/09/26 07:00:56;;;;;;;2.85;2.40;;;20.30;51.40;;;;;;5056793;28;20194;-76
2023/09/26 07:03:23;;;;;;;2.97;2.67;;;20.40;51.30;;;;;;5057969;28;20232;-76
2023/09/26 07:05:51;;;;;;;2.45;2.25;;;20.40;51.40;;;;;;5075894;28;20245;-76
2023/09/26 07:08:19;;;;;;;2.85;2.65;;;20.40;51.40;;;;;;5057681;28;20198;-76
2023/09/26 07:10:46;;;;;;;2.90;2.63;;;20.50;51.40;;;;;;5058253;28;20248;-76
2023/09/26 07:13:13;;;;;;;2.83;2.60;;;20.50;51.50;;;;;;5041307;28;20195;-76
2023/09/26 07:15:41;;;;;;;2.63;2.40;;;20.50;51.50;;;;;;5057421;28;20699;-76
2023/09/26 07:18:09;;;;;;;3.20;2.90;;;20.60;51.50;;;;;;5058015;28;20198;-76
2023/09/26 07:20:38;;;;;;;2.90;2.70;;;20.60;51.50;;;;;;5057947;28;20221;-76
2023/09/26 07:23:06;;;;;;;4.03;2.63;;;20.60;51.50;;;;;;5057831;28;20213;-76
2023/09/26 07:25:34;;;;;;;3.03;2.70;;;20.70;51.60;;;;;;5057687;28;20214;-76
2023/09/26 07:28:01;;;;;;;3.75;2.80;;;20.70;51.50;;;;;;5057899;28;20191;-76
2023/09/26 07:30:28;;;;;;;2.70;2.50;;;20.80;51.30;;;;;;5058156;28;20202;-76
2023/09/26 07:32:55;;;;;;;2.80;2.50;;;20.90;51.00;;;;;;5075596;28;20241;-76
2023/09/26 07:35:23;;;;;;;2.78;2.55;;;21.10;50.80;;;;;;5057242;28;20206;-76
2023/09/26 07:37:50;;;;;;;2.47;2.28;;;21.30;50.50;;;;;;5057530;28;20226;-76
2023/09/26 07:40:17;;;;;;;2.42;2.22;;;21.50;50.00;;;;;;5057892;28;20245;-76
2023/09/26 07:42:46;;;;;;;2.63;2.42;;;21.80;49.60;;;;;;5057796;28;20199;-76
2023/09/26 07:45:16;;;;;;;2.83;2.53;;;22.00;49.00;;;;;;5057076;28;20198;-76
2023/09/26 07:47:44;;;;;;;3.13;2.72;;;22.20;49.00;;;;;;5057208;28;20612;-76
2023/09/26 07:50:10;;;;;;;2.70;2.50;;;22.40;48.40;;;;;;5059022;28;20219;-76
2023/09/26 07:52:38;;;;;;;3.38;2.40;;;22.60;48.20;;;;;;5057032;28;20202;-76
2023/09/26 07:55:05;;;;;;;3.20;2.53;;;22.70;47.90;;;;;;5074633;28;20191;-76
2023/09/26 07:57:33;;;;;;;3.42;2.63;;;22.90;47.40;;;;;;5057235;28;20626;-76
2023/09/26 08:00:01;;;;;;;2.53;2.22;;;22.90;47.40;;;;;;5056864;28;20260;-76
2023/09/26 08:02:34;;;;;;;3.55;2.60;;;23.10;47.20;;;;;;5075289;28;20177;-76
2023/09/26 08:05:01;;;;;;;2.58;2.30;;;23.20;46.80;;;;;;5057766;28;20252;-76
2023/09/26 08:07:28;;;;;;;2.50;2.30;;;23.30;46.80;;;;;;5056745;28;20194;-76
2023/09/26 08:10:00;;;;;;;2.45;2.25;;;23.40;46.50;;;;;;5056814;28;20244;-76
2023/09/26 08:12:28;;;;;;;2.40;2.20;;;23.50;46.30;;;;;;5040560;28;20595;-76
2023/09/26 08:14:55;;;;;;;2.35;2.15;;;23.60;46.10;;;;;;5056554;28;20278;-76
2023/09/26 08:17:23;;;;;;;2.50;2.10;;;23.70;45.90;;;;;;5056743;28;20222;-76
2023/09/26 08:19:50;;;;;;;2.30;2.10;;;23.70;45.70;;;;;;5056413;28;20206;-76
2023/09/26 08:22:17;;;;;;;3.35;2.13;;;23.80;45.50;;;;;;5056329;28;20198;-76
2023/09/26 08:24:44;;;;;;;2.30;2.10;;;23.90;45.40;;;;;;5056260;28;20210;-76
2023/09/26 08:27:11;;;;;;;2.80;2.10;;;23.90;45.30;;;;;;5056126;28;20681;-76
2023/09/26 08:29:38;;;;;;;2.53;2.22;;;24.00;45.50;;;;;;5056660;28;20238;-76
2023/09/26 08:32:06;;;;;;;2.15;1.95;;;24.00;45.30;;;;;;5056221;28;20653;-76
2023/09/26 08:34:34;;;;;;;2.58;2.00;;;24.10;45.40;;;;;;5056088;28;20209;-76
2023/09/26 08:37:01;;;;;;;2.05;1.85;;;24.20;45.20;;;;;;5056023;28;20245;-76
2023/09/26 08:39:28;;;;;;;2.33;2.13;;;24.20;45.10;;;;;;5056229;28;20198;-76
2023/09/26 08:41:55;;;;;;;2.08;1.88;;;24.30;45.10;;;;;;5056052;28;20202;-76
2023/09/26 08:44:23;;;;;;;2.20;2.00;;;24.30;44.80;;;;;;5056187;28;20210;-76
2023/09/26 08:46:50;;;;;;;2.13;1.92;;;24.40;44.80;;;;;;5056360;28;20544;-76
2023/09/26 08:49:17;;;;;;;2.22;2.03;;;24.40;44.80;;;;;;5055929;28;20198;-76
2023/09/26 08:51:45;;;;;;;2.20;2.00;;;24.50;44.60;;;;;;5056287;28;20564;-76
2023/09/26 08:54:12;;;;;;;2.17;1.98;;;24.50;44.40;;;;;;5056108;28;20264;-76
2023/09/26 08:56:39;;;;;;;2.42;2.22;;;24.60;44.40;;;;;;5055641;28;20219;-76
2023/09/26 08:59:06;;;;;;;2.30;2.10;;;24.60;44.30;;;;;;5056293;28;20199;-76
2023/09/26 09:01:34;;;;;;;2.03;1.90;;;24.70;44.20;;;;;;5056092;28;20198;-76
2023/09/26 09:04:01;;;;;;;3.42;2.17;;;24.70;44.10;;;;;;5055837;28;20289;-76
2023/09/26 09:06:28;;;;;;;2.53;2.33;;;24.80;44.10;;;;;;5055683;28;20214;-76
2023/09/26 09:09:18;;;;;;;3.83;2.00;;;24.80;44.00;;;;;;5055725;28;20198;-76
2023/09/26 09:11:46;;;;;;;2.25;1.90;;;24.90;44.00;;;;;;5055788;28;20228;-74
2023/09/26 09:14:13;;;;;;;2.10;1.90;;;24.90;43.80;;;;;;5056267;28;20248;-74
2023/09/26 09:16:40;;;;;;;2.17;1.98;;;25.00;43.70;;;;;;5055605;28;20229;-74
2023/09/26 09:19:07;;;;;;;2.30;2.10;;;25.00;43.70;;;;;;5055882;28;20237;-74
2023/09/26 09:21:34;;;;;;;2.20;2.00;;;25.10;43.70;;;;;;5055675;28;20201;-75
2023/09/26 09:24:03;;;;;;;2.65;2.00;;;25.10;43.70;;;;;;5058025;28;20260;-75
2023/09/26 09:26:32;;;;;;;1.98;1.88;;;25.10;43.60;;;;;;5059741;28;20206;-75
2023/09/26 09:29:17;;;;;;;2.28;2.08;;;25.20;43.70;;;;;;5059701;28;20209;-75
2023/09/26 09:31:43;;;;;;;2.20;2.00;;;25.20;43.60;;;;;;5060492;28;20198;-75
2023/09/26 09:34:11;;;;;;;1.83;1.73;;;25.20;43.50;;;;;;5059801;28;20667;-75
2023/09/26 09:36:38;;;;;;;3.10;2.30;;;25.20;43.40;;;;;;5060357;28;20656;-76
2023/09/26 09:39:08;;;;;;;2.30;2.08;;;25.20;43.40;;;;;;5061651;28;20246;-78
2023/09/26 09:41:37;;;;;;;2.05;1.80;;;25.20;43.40;;;;;;5059594;28;20639;-77
2023/09/26 09:44:05;;;;;;;1.80;1.70;;;25.30;43.50;;;;;;5059556;28;20204;-78
2023/09/26 09:46:33;;;;;;;2.35;1.80;;;25.20;43.40;;;;;;5042817;28;20619;-78
2023/09/26 09:48:59;;;;;;;2.88;2.03;;;25.30;43.50;;;;;;5059419;28;20259;-79
2023/09/26 09:51:27;;;;;;;2.67;1.95;;;25.30;43.50;;;;;;5059898;28;20195;-79
2023/09/26 09:53:55;;;;;;;2.20;2.00;;;25.30;43.60;;;;;;5059661;28;20277;-78
2023/09/26 09:56:24;;;;;;;2.10;1.90;;;25.30;43.50;;;;;;5059143;28;20214;-77
2023/09/26 09:58:52;;;;;;;2.15;2.05;;;25.30;43.60;;;;;;5059721;28;20649;-78
2023/09/26 10:01:20;;;;;;;2.25;2.00;;;25.30;43.60;;;;;;5059533;28;20210;-76
2023/09/26 10:03:49;;;;;;;2.30;2.10;;;25.30;43.60;;;;;;5026513;28;20206;-78
2023/09/26 10:06:17;;;;;;;2.50;1.85;;;25.20;43.60;;;;;;5059267;28;20214;-79
2023/09/26 10:08:44;;;;;;;2.33;1.90;;;25.20;43.70;;;;;;5058925;28;20202;-78
2023/09/26 10:11:11;;;;;;;1.90;1.80;;;25.20;43.70;;;;;;5059117;28;20220;-79
2023/09/26 10:13:38;;;;;;;1.95;1.85;;;25.20;43.70;;;;;;5059127;28;20205;-77
2023/09/26 10:16:11;;;;;;;2.17;1.98;;;25.20;43.70;;;;;;5058832;28;20691;-77
2023/09/26 10:18:39;;;;;;;2.22;1.85;;;25.20;43.80;;;;;;5058716;28;20210;-77
2023/09/26 10:21:20;;;;;;;2.15;1.65;;;25.20;43.80;;;;;;5058648;28;20202;-77
2023/09/26 10:24:21;;;;;;;2.78;1.90;;;25.20;43.80;;;;;;5058939;28;20575;-77
2023/09/26 10:26:49;;;;;;;1.70;1.60;;;25.20;43.80;;;;;;5058476;28;20306;-77
2023/09/26 10:29:22;;;;;;;2.13;1.92;;;25.20;44.00;;;;;;5058935;28;20202;-79
2023/09/26 10:31:54;;;;;;;2.17;2.00;;;25.10;44.60;;;;;;5058531;28;20193;-77
2023/09/26 10:34:24;;;;;;;2.20;2.00;;;25.10;44.10;;;;;;5058510;28;20191;-77
2023/09/26 10:36:51;;;;;;;1.90;1.80;;;25.10;44.10;;;;;;5058169;28;20222;-77
2023/09/26 10:39:18;;;;;;;1.85;1.75;;;25.00;44.20;;;;;;5058647;28;20226;-77
2023/09/26 10:41:45;;;;;;;2.00;1.80;;;25.00;44.30;;;;;;5058329;28;20194;-77
2023/09/26 10:44:12;;;;;;;2.00;1.80;;;25.00;44.40;;;;;;5058324;28;20216;-76
2023/09/26 10:46:40;;;;;;;2.28;2.08;;;25.00;44.50;;;;;;5058162;28;20313;-77
2023/09/26 10:49:08;;;;;;;1.75;1.65;;;24.90;44.50;;;;;;5058529;28;20204;-77
2023/09/26 10:51:35;;;;;;;2.20;2.00;;;24.90;44.60;;;;;;5058258;28;20264;-77
2023/09/26 10:54:03;;;;;;;1.77;1.67;;;24.90;44.70;;;;;;5058427;28;20198;-77
2023/09/26 10:56:30;;;;;;;1.70;1.60;;;24.90;45.30;;;;;;5076420;28;20602;-77
2023/09/26 10:58:57;;;;;;;1.83;1.73;;;24.90;44.80;;;;;;5058007;28;20195;-77
2023/09/26 11:01:42;;;;;;;1.70;1.60;;;24.90;45.00;;;;;;5041880;28;20190;-77
2023/09/26 11:04:10;;;;;;;1.90;1.80;;;24.70;45.00;;;;;;5039628;28;20226;-77
2023/09/26 11:06:37;;;;;;;1.98;1.88;;;24.70;45.10;;;;;;5057854;28;20206;-77
2023/09/26 11:09:05;;;;;;;1.80;1.70;;;24.70;45.30;;;;;;5058050;28;20268;-77
2023/09/26 11:11:31;;;;;;;1.98;1.77;;;24.70;45.40;;;;;;5057735;28;20244;-77
2023/09/26 11:13:59;;;;;;;3.03;1.90;;;24.70;45.50;;;;;;5057625;28;20206;-77
2023/09/26 11:16:26;;;;;;;1.90;1.80;;;24.70;45.50;;;;;;5057489;28;20711;-77
2023/09/26 11:18:56;;;;;;;2.20;1.77;;;24.70;45.50;;;;;;5041102;28;20209;-77
2023/09/26 11:21:24;;;;;;;2.00;1.80;;;24.70;45.60;;;;;;5057510;28;20198;-77
2023/09/26 11:23:51;;;;;;;1.60;1.50;;;24.70;45.70;;;;;;5057431;28;20197;-77
2023/09/26 11:26:18;;;;;;;1.63;1.52;;;24.60;45.60;;;;;;5057516;28;20214;-77
2023/09/26 11:28:45;;;;;;;1.90;1.80;;;24.70;45.80;;;;;;5042707;28;20194;-77
2023/09/26 11:31:13;;;;;;;1.70;1.58;;;24.70;45.80;;;;;;5059650;28;20190;-77
2023/09/26 11:33:41;;;;;;;2.05;1.83;;;24.70;45.90;;;;;;5060915;28;20198;-77
2023/09/26 11:36:09;;;;;;;1.77;1.67;;;24.70;45.90;;;;;;5057915;28;20248;-77
2023/09/26 11:38:48;;;;;;;1.60;1.50;;;24.70;46.00;;;;;;5058098;28;20594;-77
2023/09/26 11:41:15;;;;;;;1.88;1.75;;;24.70;46.00;;;;;;5057319;28;20201;-77
2023/09/26 11:43:43;;;;;;;1.80;1.70;;;24.70;46.00;;;;;;5057133;28;20324;-77
2023/09/26 11:46:10;;;;;;;1.63;1.52;;;24.70;46.10;;;;;;5074371;28;20206;-77
2023/09/26 11:48:38;;;;;;;1.85;1.75;;;24.70;46.10;;;;;;5057205;28;20197;-77
2023/09/26 11:51:05;;;;;;;2.00;1.85;;;24.70;46.10;;;;;;5057115;28;20675;-77
2023/09/26 11:53:32;;;;;;;1.60;1.50;;;24.70;46.10;;;;;;5057313;28;20202;-77
2023/09/26 11:56:00;;;;;;;1.95;1.83;;;24.70;46.20;;;;;;5057082;28;20213;-77
2023/09/26 11:58:27;;;;;;;1.55;1.45;;;24.70;46.20;;;;;;5056751;28;20214;-77
2023/09/26 12:00:55;;;;;;;1.88;1.70;;;24.80;46.30;;;;;;5057164;28;20222;-77
2023/09/26 12:03:22;;;;;;;1.65;1.55;;;24.80;46.40;;;;;;5056690;28;20194;-77
2023/09/26 12:05:50;;;;;;;1.60;1.50;;;24.80;46.40;;;;;;5057465;28;20254;-77
2023/09/26 12:08:17;;;;;;;1.70;1.60;;;24.80;47.10;;;;;;5057670;28;20190;-77
2023/09/26 12:10:44;;;;;;;1.70;1.60;;;24.80;46.50;;;;;;5056641;28;20301;-77
2023/09/26 12:13:12;;;;;;;1.98;1.88;;;24.70;46.60;;;;;;5056797;28;20219;-77
2023/09/26 12:15:40;;;;;;;1.65;1.55;;;24.80;46.60;;;;;;5056584;28;20218;-77
2023/09/26 12:18:06;;;;;;;1.90;1.65;;;24.80;46.80;;;;;;5056415;28;20271;-77
2023/09/26 12:20:34;;;;;;;2.20;1.50;;;24.80;46.80;;;;;;5057299;28;20194;-77
2023/09/26 12:23:02;;;;;;;1.77;1.67;;;24.80;46.80;;;;;;5163759;22;20219;-78
2023/09/26 12:25:30;;;;;;;1.63;1.52;;;24.80;46.90;;;;;;5076139;28;20215;-80
2023/09/26 12:27:57;;;;;;;1.90;1.80;;;24.70;46.90;;;;;;5057635;28;20293;-80
2023/09/26 12:30:25;;;;;;;1.92;1.83;;;24.70;46.90;;;;;;5057856;28;20198;-80
2023/09/26 12:32:53;;;;;;;1.60;1.50;;;24.70;47.00;;;;;;5057471;28;20197;-80
2023/09/26 12:35:20;;;;;;;2.03;1.73;;;24.70;47.10;;;;;;5057591;28;20664;-80
2023/09/26 12:37:47;;;;;;;1.60;1.50;;;24.70;47.10;;;;;;5057541;28;20229;-80
2023/09/26 12:40:14;;;;;;;1.80;1.70;;;24.70;47.20;;;;;;5057689;28;20195;-80
2023/09/26 12:42:41;;;;;;;1.70;1.60;;;24.70;47.20;;;;;;5058071;28;20592;-80
2023/09/26 12:45:09;;;;;;;1.75;1.65;;;24.70;47.30;;;;;;5057092;28;20191;-80
2023/09/26 12:47:38;;;;;;;1.60;1.50;;;24.70;47.40;;;;;;5057389;28;20191;-80
2023/09/26 12:50:08;;;;;;;2.03;1.88;;;24.70;47.40;;;;;;5056934;28;20248;-80
2023/09/26 12:52:38;;;;;;;1.70;1.60;;;24.70;47.50;;;;;;5057231;28;20201;-80